sensor_id;sensor_type;location;lat;lon;timestamp;pressure;altitude;pressure_sealevel;temperature;humidity
60715;BME280;46564;53.096;8.246;2023-04-06T00:01:19;101824.47;;;-0.22;79.42
60715;BME280;46564;53.096;8.246;2023-04-06T00:06:21;101815.00;;;-0.33;79.65
60715;BME280;46564;53.096;8.246;2023-04-06T00:11:23;101811.94;;;-0.40;79.69
60715;BME280;46564;53.096;8.246;2023-04-06T00:16:24;101808.25;;;-0.43;79.65
60715;BME280;46564;53.096;8.246;2023-04-06T00:21:28;101803.88;;;-0.44;79.99
60715;BME280;46564;53.096;8.246;2023-04-06T00:26:30;101798.50;;;-0.47;80.31
60715;BME280;46564;53.096;8.246;2023-04-06T00:31:31;101799.69;;;-0.54;80.73
60715;BME280;46564;53.096;8.246;2023-04-06T00:36:33;101797.31;;;-0.63;80.71
60715;BME280;46564;53.096;8.246;2023-04-06T00:41:34;101786.31;;;-0.72;80.71
60715;BME280;46564;53.096;8.246;2023-04-06T00:46:36;101792.84;;;-0.76;80.81
60715;BME280;46564;53.096;8.246;2023-04-06T00:51:38;101780.53;;;-0.80;80.83
60715;BME280;46564;53.096;8.246;2023-04-06T00:56:41;101786.88;;;-0.86;80.89
60715;BME280;46564;53.096;8.246;2023-04-06T01:01:43;101778.69;;;-0.93;81.14
60715;BME280;46564;53.096;8.246;2023-04-06T01:07:01;101778.78;;;-0.91;81.38
60715;BME280;46564;53.096;8.246;2023-04-06T01:12:12;101770.97;;;-0.93;81.72
60715;BME280;46564;53.096;8.246;2023-04-06T01:17:14;101768.28;;;-0.94;82.09
60715;BME280;46564;53.096;8.246;2023-04-06T01:22:17;101767.09;;;-0.98;82.26
60715;BME280;46564;53.096;8.246;2023-04-06T01:27:28;101758.78;;;-1.05;82.42
60715;BME280;46564;53.096;8.246;2023-04-06T01:32:39;101756.50;;;-1.13;82.80
60715;BME280;46564;53.096;8.246;2023-04-06T01:37:42;101748.44;;;-1.17;83.03
60715;BME280;46564;53.096;8.246;2023-04-06T01:42:47;101752.06;;;-1.26;82.97
60715;BME280;46564;53.096;8.246;2023-04-06T01:47:57;101745.91;;;-1.28;83.19
60715;BME280;46564;53.096;8.246;2023-04-06T01:53:00;101739.50;;;-1.33;83.40
60715;BME280;46564;53.096;8.246;2023-04-06T01:58:03;101734.88;;;-1.37;83.43
60715;BME280;46564;53.096;8.246;2023-04-06T02:03:09;101727.31;;;-1.46;83.62
60715;BME280;46564;53.096;8.246;2023-04-06T02:08:12;101722.06;;;-1.47;83.77
60715;BME280;46564;53.096;8.246;2023-04-06T02:13:14;101714.13;;;-1.50;83.86
60715;BME280;46564;53.096;8.246;2023-04-06T02:18:21;101704.28;;;-1.56;83.76
60715;BME280;46564;53.096;8.246;2023-04-06T02:23:22;101707.00;;;-1.65;84.13
60715;BME280;46564;53.096;8.246;2023-04-06T02:28:23;101705.06;;;-1.67;84.15
60715;BME280;46564;53.096;8.246;2023-04-06T02:33:25;101703.56;;;-1.75;84.05
60715;BME280;46564;53.096;8.246;2023-04-06T02:38:26;101701.38;;;-1.81;84.09
60715;BME280;46564;53.096;8.246;2023-04-06T02:43:28;101693.31;;;-1.86;84.01
60715;BME280;46564;53.096;8.246;2023-04-06T02:48:37;101691.63;;;-1.85;84.14
60715;BME280;46564;53.096;8.246;2023-04-06T02:53:39;101692.25;;;-1.88;84.10
60715;BME280;46564;53.096;8.246;2023-04-06T02:58:41;101696.38;;;-1.90;84.22
60715;BME280;46564;53.096;8.246;2023-04-06T03:03:43;101686.88;;;-2.01;84.37
60715;BME280;46564;53.096;8.246;2023-04-06T03:08:52;101689.47;;;-2.01;84.33
60715;BME280;46564;53.096;8.246;2023-04-06T03:13:54;101681.38;;;-2.06;84.31
60715;BME280;46564;53.096;8.246;2023-04-06T03:18:55;101680.25;;;-2.09;84.50
60715;BME280;46564;53.096;8.246;2023-04-06T03:23:57;101689.63;;;-2.10;84.33
60715;BME280;46564;53.096;8.246;2023-04-06T03:29:00;101691.16;;;-2.12;84.33
60715;BME280;46564;53.096;8.246;2023-04-06T03:34:05;101685.63;;;-2.06;84.48
60715;BME280;46564;53.096;8.246;2023-04-06T03:39:09;101686.00;;;-2.12;84.69
60715;BME280;46564;53.096;8.246;2023-04-06T03:44:14;101690.66;;;-2.18;84.56
60715;BME280;46564;53.096;8.246;2023-04-06T03:49:17;101691.03;;;-2.24;84.87
60715;BME280;46564;53.096;8.246;2023-04-06T03:54:23;101688.09;;;-2.28;84.99
60715;BME280;46564;53.096;8.246;2023-04-06T03:59:25;101681.56;;;-2.35;85.00
60715;BME280;46564;53.096;8.246;2023-04-06T04:04:27;101686.19;;;-2.41;85.01
60715;BME280;46564;53.096;8.246;2023-04-06T04:09:28;101683.22;;;-2.46;84.85
60715;BME280;46564;53.096;8.246;2023-04-06T04:14:30;101679.88;;;-2.45;84.80
60715;BME280;46564;53.096;8.246;2023-04-06T04:19:31;101684.13;;;-2.45;84.97
60715;BME280;46564;53.096;8.246;2023-04-06T04:24:33;101681.19;;;-2.50;84.95
60715;BME280;46564;53.096;8.246;2023-04-06T04:29:35;101677.47;;;-2.54;85.13
60715;BME280;46564;53.096;8.246;2023-04-06T04:34:41;101679.13;;;-2.54;85.04
60715;BME280;46564;53.096;8.246;2023-04-06T04:39:48;101675.78;;;-2.53;85.12
60715;BME280;46564;53.096;8.246;2023-04-06T04:44:49;101678.34;;;-2.53;84.97
60715;BME280;46564;53.096;8.246;2023-04-06T04:50:01;101676.78;;;-2.61;85.19
60715;BME280;46564;53.096;8.246;2023-04-06T04:55:04;101683.72;;;-2.60;85.10
60715;BME280;46564;53.096;8.246;2023-04-06T05:00:06;101678.59;;;-2.60;85.07
60715;BME280;46564;53.096;8.246;2023-04-06T05:05:10;101678.59;;;-2.60;85.40
60715;BME280;46564;53.096;8.246;2023-04-06T05:10:13;101676.16;;;-2.59;85.26
60715;BME280;46564;53.096;8.246;2023-04-06T05:15:25;101677.19;;;-2.57;85.32
60715;BME280;46564;53.096;8.246;2023-04-06T05:20:30;101679.13;;;-2.54;85.50
60715;BME280;46564;53.096;8.246;2023-04-06T05:25:32;101686.19;;;-2.52;85.38
60715;BME280;46564;53.096;8.246;2023-04-06T05:30:45;101683.50;;;-2.43;85.49
60715;BME280;46564;53.096;8.246;2023-04-06T05:35:48;101673.59;;;-2.28;85.52
60715;BME280;46564;53.096;8.246;2023-04-06T05:40:49;101668.84;;;-2.23;85.80
60715;BME280;46564;53.096;8.246;2023-04-06T05:45:55;101677.56;;;-2.11;85.71
60715;BME280;46564;53.096;8.246;2023-04-06T05:50:56;101680.75;;;-2.03;85.42
60715;BME280;46564;53.096;8.246;2023-04-06T05:56:06;101674.16;;;-1.89;85.44
60715;BME280;46564;53.096;8.246;2023-04-06T06:01:09;101658.22;;;-1.75;85.08
60715;BME280;46564;53.096;8.246;2023-04-06T06:06:15;101672.41;;;-1.58;85.09
60715;BME280;46564;53.096;8.246;2023-04-06T06:11:41;101664.38;;;-1.40;84.53
60715;BME280;46564;53.096;8.246;2023-04-06T06:16:45;101669.66;;;-1.17;84.59
60715;BME280;46564;53.096;8.246;2023-04-06T06:21:49;101662.50;;;-0.99;84.30
60715;BME280;46564;53.096;8.246;2023-04-06T06:26:51;101649.72;;;-0.75;83.71
60715;BME280;46564;53.096;8.246;2023-04-06T06:31:55;101639.72;;;-0.48;83.19
60715;BME280;46564;53.096;8.246;2023-04-06T06:36:58;101656.22;;;-0.23;82.52
60715;BME280;46564;53.096;8.246;2023-04-06T06:42:00;101652.22;;;0.16;82.05
60715;BME280;46564;53.096;8.246;2023-04-06T06:47:25;101665.19;;;0.53;80.73
60715;BME280;46564;53.096;8.246;2023-04-06T06:52:27;101653.25;;;0.79;80.11
60715;BME280;46564;53.096;8.246;2023-04-06T06:57:30;101651.81;;;1.08;78.93
60715;BME280;46564;53.096;8.246;2023-04-06T07:02:33;101648.56;;;1.36;78.30
60715;BME280;46564;53.096;8.246;2023-04-06T07:07:35;101650.44;;;1.64;77.29
60715;BME280;46564;53.096;8.246;2023-04-06T07:12:37;101650.44;;;1.64;77.29
60715;BME280;46564;53.096;8.246;2023-04-06T07:17:38;101636.81;;;3.75;74.88
60715;BME280;46564;53.096;8.246;2023-04-06T07:22:42;101634.28;;;4.84;72.49
60715;BME280;46564;53.096;8.246;2023-04-06T07:27:44;101635.81;;;5.64;69.67
60715;BME280;46564;53.096;8.246;2023-04-06T07:32:46;101639.78;;;6.62;67.34
60715;BME280;46564;53.096;8.246;2023-04-06T07:37:48;101643.50;;;6.87;64.72
60715;BME280;46564;53.096;8.246;2023-04-06T07:42:49;101630.69;;;6.92;63.16
60715;BME280;46564;53.096;8.246;2023-04-06T07:47:51;101632.97;;;7.03;61.78
60715;BME280;46564;53.096;8.246;2023-04-06T07:52:53;101629.81;;;7.71;61.00
60715;BME280;46564;53.096;8.246;2023-04-06T07:57:55;101623.78;;;7.31;59.50
60715;BME280;46564;53.096;8.246;2023-04-06T08:02:59;101621.53;;;8.02;58.72
60715;BME280;46564;53.096;8.246;2023-04-06T08:08:19;101609.38;;;7.60;57.57
60715;BME280;46564;53.096;8.246;2023-04-06T08:13:22;101610.47;;;7.66;57.04
60715;BME280;46564;53.096;8.246;2023-04-06T08:18:23;101616.94;;;7.96;56.75
60715;BME280;46564;53.096;8.246;2023-04-06T08:23:25;101615.03;;;7.92;56.33
60715;BME280;46564;53.096;8.246;2023-04-06T08:28:27;101620.06;;;8.53;56.18
60715;BME280;46564;53.096;8.246;2023-04-06T08:33:28;101615.06;;;8.57;55.14
60715;BME280;46564;53.096;8.246;2023-04-06T08:38:30;101617.59;;;8.78;54.20
60715;BME280;46564;53.096;8.246;2023-04-06T08:43:31;101606.81;;;9.42;54.23
60715;BME280;46564;53.096;8.246;2023-04-06T08:48:34;101604.03;;;9.37;53.31
60715;BME280;46564;53.096;8.246;2023-04-06T08:53:36;101596.88;;;8.83;52.36
60715;BME280;46564;53.096;8.246;2023-04-06T08:58:39;101600.03;;;8.98;52.09
60715;BME280;46564;53.096;8.246;2023-04-06T09:03:42;101600.03;;;8.98;51.22
60715;BME280;46564;53.096;8.246;2023-04-06T09:08:44;101596.53;;;8.98;51.06
60715;BME280;46564;53.096;8.246;2023-04-06T09:13:54;101596.69;;;9.78;51.08
60715;BME280;46564;53.096;8.246;2023-04-06T09:19:03;101598.91;;;9.40;50.45
60715;BME280;46564;53.096;8.246;2023-04-06T09:24:07;101591.06;;;9.66;50.28
60715;BME280;46564;53.096;8.246;2023-04-06T09:29:09;57128.34;;;-147.53;100.00
60715;BME280;46564;53.096;8.246;2023-04-06T09:34:20;75680.94;;;9.66;100.00
60715;BME280;46564;53.096;8.246;2023-04-06T09:39:22;57128.34;;;-147.53;100.00
60715;BME280;46564;53.096;8.246;2023-04-06T09:44:27;57128.34;;;-147.53;100.00
60715;BME280;46564;53.096;8.246;2023-04-06T09:49:30;57128.34;;;-147.53;100.00
60715;BME280;46564;53.096;8.246;2023-04-06T09:54:32;57128.34;;;-147.53;100.00
60715;BME280;46564;53.096;8.246;2023-04-06T10:00:22;130921.88;;;12.03;47.43
60715;BME280;46564;53.096;8.246;2023-04-06T10:05:02;101568.72;;;12.28;46.67
60715;BME280;46564;53.096;8.246;2023-04-06T10:10:07;101567.28;;;12.01;45.32
60715;BME280;46564;53.096;8.246;2023-04-06T10:15:10;101568.16;;;12.01;45.81
60715;BME280;46564;53.096;8.246;2023-04-06T10:20:17;101566.91;;;11.89;44.46
60715;BME280;46564;53.096;8.246;2023-04-06T10:25:32;101562.63;;;11.91;44.78
60715;BME280;46564;53.096;8.246;2023-04-06T10:30:36;57128.34;;;-147.53;100.00
60715;BME280;46564;53.096;8.246;2023-04-06T10:35:43;57128.34;;;-147.53;100.00
60715;BME280;46564;53.096;8.246;2023-04-06T10:40:44;57128.34;;;-147.53;100.00
60715;BME280;46564;53.096;8.246;2023-04-06T10:45:56;57128.34;;;-147.53;100.00
60715;BME280;46564;53.096;8.246;2023-04-06T10:50:58;57128.34;;;-147.53;100.00
60715;BME280;46564;53.096;8.246;2023-04-06T10:55:59;57128.34;;;-147.53;100.00
60715;BME280;46564;53.096;8.246;2023-04-06T11:01:02;57128.34;;;-147.53;100.00
60715;BME280;46564;53.096;8.246;2023-04-06T11:06:03;57128.34;;;-147.53;100.00
60715;BME280;46564;53.096;8.246;2023-04-06T11:11:12;57128.34;;;-147.53;100.00
60715;BME280;46564;53.096;8.246;2023-04-06T11:16:19;57128.34;;;-147.53;100.00
60715;BME280;46564;53.096;8.246;2023-04-06T11:21:37;101539.19;;;12.79;42.17
60715;BME280;46564;53.096;8.246;2023-04-06T11:31:51;101519.13;;;12.40;41.96
60715;BME280;46564;53.096;8.246;2023-04-06T11:36:58;101514.25;;;12.59;41.92
60715;BME280;46564;53.096;8.246;2023-04-06T11:42:01;101513.25;;;12.98;41.95
60715;BME280;46564;53.096;8.246;2023-04-06T11:47:10;101508.75;;;12.46;41.83
60715;BME280;46564;53.096;8.246;2023-04-06T11:52:26;101499.31;;;12.58;41.98
60715;BME280;46564;53.096;8.246;2023-04-06T11:57:29;101495.94;;;12.63;41.56
60715;BME280;46564;53.096;8.246;2023-04-06T12:02:30;101490.88;;;12.30;41.56
60715;BME280;46564;53.096;8.246;2023-04-06T12:07:33;101490.91;;;12.74;41.70
60715;BME280;46564;53.096;8.246;2023-04-06T12:12:35;101487.19;;;12.63;41.02
60715;BME280;46564;53.096;8.246;2023-04-06T12:17:36;101484.38;;;13.01;41.34
60715;BME280;46564;53.096;8.246;2023-04-06T12:22:38;101476.16;;;13.31;40.99
60715;BME280;46564;53.096;8.246;2023-04-06T12:27:39;101484.94;;;13.32;40.12
60715;BME280;46564;53.096;8.246;2023-04-06T12:32:41;101465.81;;;12.91;40.25
60715;BME280;46564;53.096;8.246;2023-04-06T12:37:43;101460.56;;;12.91;40.27
60715;BME280;46564;53.096;8.246;2023-04-06T12:42:44;101472.06;;;12.98;40.33
60715;BME280;46564;53.096;8.246;2023-04-06T12:47:47;101465.25;;;13.61;40.66
60715;BME280;46564;53.096;8.246;2023-04-06T12:52:48;101462.84;;;13.22;39.86
60715;BME280;46564;53.096;8.246;2023-04-06T12:57:50;101472.94;;;13.48;39.87
60715;BME280;46564;53.096;8.246;2023-04-06T13:02:52;101464.47;;;13.67;39.14
60715;BME280;46564;53.096;8.246;2023-04-06T13:07:54;101467.66;;;13.46;38.59
60715;BME280;46564;53.096;8.246;2023-04-06T13:12:55;101453.88;;;13.63;38.98
60715;BME280;46564;53.096;8.246;2023-04-06T13:17:57;101454.06;;;13.76;38.85
60715;BME280;46564;53.096;8.246;2023-04-06T13:22:58;101461.22;;;13.29;38.22
60715;BME280;46564;53.096;8.246;2023-04-06T13:28:00;101445.44;;;13.29;38.18
60715;BME280;46564;53.096;8.246;2023-04-06T13:33:02;101443.41;;;13.12;38.68
60715;BME280;46564;53.096;8.246;2023-04-06T13:38:04;101444.31;;;13.14;39.01
60715;BME280;46564;53.096;8.246;2023-04-06T13:43:06;101440.84;;;13.17;39.04
60715;BME280;46564;53.096;8.246;2023-04-06T13:48:07;101445.94;;;13.07;39.26
60715;BME280;46564;53.096;8.246;2023-04-06T13:53:09;101434.75;;;13.19;39.23
60715;BME280;46564;53.096;8.246;2023-04-06T13:58:11;101428.81;;;13.33;39.49
60715;BME280;46564;53.096;8.246;2023-04-06T14:03:12;101424.97;;;13.64;39.61
60715;BME280;46564;53.096;8.246;2023-04-06T14:08:14;101429.88;;;13.41;39.21
60715;BME280;46564;53.096;8.246;2023-04-06T14:13:16;101417.41;;;13.31;39.13
60715;BME280;46564;53.096;8.246;2023-04-06T14:18:18;101416.84;;;12.97;39.35
60715;BME280;46564;53.096;8.246;2023-04-06T14:23:20;101419.06;;;13.25;39.76
60715;BME280;46564;53.096;8.246;2023-04-06T14:28:22;101418.44;;;13.40;39.91
60715;BME280;46564;53.096;8.246;2023-04-06T14:33:23;101411.22;;;13.27;39.73
60715;BME280;46564;53.096;8.246;2023-04-06T14:38:25;101408.66;;;13.32;39.65
60715;BME280;46564;53.096;8.246;2023-04-06T14:43:27;101405.00;;;13.23;39.38
60715;BME280;46564;53.096;8.246;2023-04-06T14:48:29;101398.75;;;13.14;39.08
60715;BME280;46564;53.096;8.246;2023-04-06T14:53:31;101394.59;;;13.30;39.28
60715;BME280;46564;53.096;8.246;2023-04-06T14:58:33;101398.75;;;13.15;39.13
60715;BME280;46564;53.096;8.246;2023-04-06T15:03:34;101389.00;;;13.08;39.08
60715;BME280;46564;53.096;8.246;2023-04-06T15:08:36;101392.56;;;13.13;39.03
60715;BME280;46564;53.096;8.246;2023-04-06T15:13:39;101390.91;;;13.18;38.33
60715;BME280;46564;53.096;8.246;2023-04-06T15:18:41;101377.66;;;13.11;38.27
60715;BME280;46564;53.096;8.246;2023-04-06T15:23:42;101388.38;;;13.23;38.20
60715;BME280;46564;53.096;8.246;2023-04-06T15:28:44;101389.00;;;13.23;38.42
60715;BME280;46564;53.096;8.246;2023-04-06T15:33:45;101375.66;;;12.96;38.28
60715;BME280;46564;53.096;8.246;2023-04-06T15:38:47;101379.94;;;12.90;38.17
60715;BME280;46564;53.096;8.246;2023-04-06T15:43:49;101372.97;;;12.93;38.55
60715;BME280;46564;53.096;8.246;2023-04-06T15:48:52;101377.41;;;12.97;38.30
60715;BME280;46564;53.096;8.246;2023-04-06T15:53:53;101378.25;;;12.93;37.82
60715;BME280;46564;53.096;8.246;2023-04-06T15:58:55;101373.56;;;12.75;37.17
60715;BME280;46564;53.096;8.246;2023-04-06T16:03:56;101369.78;;;12.60;36.97
60715;BME280;46564;53.096;8.246;2023-04-06T16:08:58;101379.28;;;12.53;36.87
60715;BME280;46564;53.096;8.246;2023-04-06T16:14:00;101377.63;;;12.59;36.78
60715;BME280;46564;53.096;8.246;2023-04-06T16:19:02;101383.00;;;12.65;37.01
60715;BME280;46564;53.096;8.246;2023-04-06T16:24:03;101380.22;;;12.55;36.80
60715;BME280;46564;53.096;8.246;2023-04-06T16:29:06;101379.16;;;12.47;36.88
60715;BME280;46564;53.096;8.246;2023-04-06T16:34:08;101379.72;;;12.31;36.94
60715;BME280;46564;53.096;8.246;2023-04-06T16:39:09;101372.66;;;12.27;37.61
60715;BME280;46564;53.096;8.246;2023-04-06T16:44:11;101376.03;;;12.19;37.53
60715;BME280;46564;53.096;8.246;2023-04-06T16:49:13;101369.78;;;12.14;37.59
60715;BME280;46564;53.096;8.246;2023-04-06T16:54:15;101379.34;;;12.11;37.81
60715;BME280;46564;53.096;8.246;2023-04-06T16:59:16;101381.91;;;12.08;38.04
60715;BME280;46564;53.096;8.246;2023-04-06T17:04:19;101371.25;;;12.00;38.36
60715;BME280;46564;53.096;8.246;2023-04-06T17:09:22;101372.94;;;11.98;38.67
60715;BME280;46564;53.096;8.246;2023-04-06T17:14:25;101368.41;;;11.91;38.72
60715;BME280;46564;53.096;8.246;2023-04-06T17:19:27;101370.84;;;11.81;38.92
60715;BME280;46564;53.096;8.246;2023-04-06T17:24:29;101380.28;;;11.73;39.28
60715;BME280;46564;53.096;8.246;2023-04-06T17:29:34;101386.22;;;11.66;39.63
60715;BME280;46564;53.096;8.246;2023-04-06T17:34:36;101382.50;;;11.55;39.75
60715;BME280;46564;53.096;8.246;2023-04-06T17:39:37;101382.34;;;11.47;39.92
60715;BME280;46564;53.096;8.246;2023-04-06T17:44:39;101381.13;;;11.32;40.28
60715;BME280;46564;53.096;8.246;2023-04-06T17:49:41;101384.34;;;11.22;40.61
60715;BME280;46564;53.096;8.246;2023-04-06T17:54:42;101388.50;;;11.12;40.97
60715;BME280;46564;53.096;8.246;2023-04-06T17:59:44;101388.22;;;11.02;41.55
60715;BME280;46564;53.096;8.246;2023-04-06T18:04:51;101400.22;;;10.92;41.94
60715;BME280;46564;53.096;8.246;2023-04-06T18:09:53;101400.63;;;10.74;42.42
60715;BME280;46564;53.096;8.246;2023-04-06T18:14:54;101396.75;;;10.59;42.80
60715;BME280;46564;53.096;8.246;2023-04-06T18:19:56;101399.84;;;10.44;43.25
60715;BME280;46564;53.096;8.246;2023-04-06T18:24:57;101408.06;;;10.28;44.00
60715;BME280;46564;53.096;8.246;2023-04-06T18:30:02;101400.63;;;10.12;44.80
60715;BME280;46564;53.096;8.246;2023-04-06T18:35:04;101408.75;;;9.90;45.37
60715;BME280;46564;53.096;8.246;2023-04-06T18:40:07;101404.72;;;9.71;45.95
60715;BME280;46564;53.096;8.246;2023-04-06T18:45:09;101400.72;;;9.55;46.71
60715;BME280;46564;53.096;8.246;2023-04-06T18:50:10;101403.63;;;9.37;47.47
60715;BME280;46564;53.096;8.246;2023-04-06T18:55:12;101404.81;;;9.20;48.13
60715;BME280;46564;53.096;8.246;2023-04-06T19:00:14;101403.44;;;9.04;48.77
60715;BME280;46564;53.096;8.246;2023-04-06T19:05:17;101416.88;;;8.89;49.79
60715;BME280;46564;53.096;8.246;2023-04-06T19:10:19;101412.78;;;8.72;50.49
60715;BME280;46564;53.096;8.246;2023-04-06T19:15:20;101408.06;;;8.61;50.72
60715;BME280;46564;53.096;8.246;2023-04-06T19:20:22;101408.72;;;8.54;51.16
60715;BME280;46564;53.096;8.246;2023-04-06T19:25:24;101413.69;;;8.48;51.80
60715;BME280;46564;53.096;8.246;2023-04-06T19:30:25;101444.31;;;8.29;52.39
60715;BME280;46564;53.096;8.246;2023-04-06T19:35:27;101432.47;;;8.38;50.86
60715;BME280;46564;53.096;8.246;2023-04-06T19:40:28;101428.53;;;8.49;50.00
60715;BME280;46564;53.096;8.246;2023-04-06T19:45:30;101429.81;;;8.60;49.53
60715;BME280;46564;53.096;8.246;2023-04-06T19:50:31;101436.56;;;8.55;49.54
60715;BME280;46564;53.096;8.246;2023-04-06T19:55:36;101431.97;;;8.48;49.78
60715;BME280;46564;53.096;8.246;2023-04-06T20:00:38;101430.56;;;8.34;49.94
60715;BME280;46564;53.096;8.246;2023-04-06T20:05:40;101434.53;;;8.24;50.17
60715;BME280;46564;53.096;8.246;2023-04-06T20:10:41;101435.97;;;8.16;50.21
60715;BME280;46564;53.096;8.246;2023-04-06T20:15:43;101431.06;;;8.01;50.71
60715;BME280;46564;53.096;8.246;2023-04-06T20:20:45;101427.38;;;7.95;50.73
60715;BME280;46564;53.096;8.246;2023-04-06T20:25:47;101429.94;;;7.94;51.09
60715;BME280;46564;53.096;8.246;2023-04-06T20:30:52;101434.28;;;7.93;50.74
60715;BME280;46564;53.096;8.246;2023-04-06T20:35:57;101442.81;;;7.89;51.05
60715;BME280;46564;53.096;8.246;2023-04-06T20:41:00;101443.53;;;7.85;51.42
60715;BME280;46564;53.096;8.246;2023-04-06T20:46:02;101435.59;;;7.82;51.63
60715;BME280;46564;53.096;8.246;2023-04-06T20:51:04;101438.28;;;7.84;51.81
60715;BME280;46564;53.096;8.246;2023-04-06T20:56:05;101437.25;;;7.80;52.36
60715;BME280;46564;53.096;8.246;2023-04-06T21:01:12;101441.34;;;7.73;52.74
60715;BME280;46564;53.096;8.246;2023-04-06T21:06:13;101432.44;;;7.68;52.82
60715;BME280;46564;53.096;8.246;2023-04-06T21:11:16;101433.06;;;7.63;53.57
60715;BME280;46564;53.096;8.246;2023-04-06T21:16:17;101440.53;;;7.53;53.98
60715;BME280;46564;53.096;8.246;2023-04-06T21:21:19;101436.63;;;7.42;54.84
60715;BME280;46564;53.096;8.246;2023-04-06T21:26:20;101436.25;;;7.33;55.12
60715;BME280;46564;53.096;8.246;2023-04-06T21:31:22;101439.44;;;7.25;55.50
60715;BME280;46564;53.096;8.246;2023-04-06T21:36:23;101442.72;;;7.21;55.83
60715;BME280;46564;53.096;8.246;2023-04-06T21:41:28;101436.78;;;7.24;56.18
60715;BME280;46564;53.096;8.246;2023-04-06T21:46:29;101444.72;;;7.27;56.50
60715;BME280;46564;53.096;8.246;2023-04-06T21:51:31;101435.28;;;7.31;56.74
60715;BME280;46564;53.096;8.246;2023-04-06T21:56:33;101439.69;;;7.32;57.05
60715;BME280;46564;53.096;8.246;2023-04-06T22:01:34;101437.84;;;7.29;57.57
60715;BME280;46564;53.096;8.246;2023-04-06T22:06:36;101430.19;;;7.34;58.65
60715;BME280;46564;53.096;8.246;2023-04-06T22:11:38;101424.00;;;7.30;59.68
60715;BME280;46564;53.096;8.246;2023-04-06T22:16:40;101422.44;;;7.35;60.24
60715;BME280;46564;53.096;8.246;2023-04-06T22:21:43;101426.78;;;7.35;60.79
60715;BME280;46564;53.096;8.246;2023-04-06T22:26:45;101419.66;;;7.31;61.43
60715;BME280;46564;53.096;8.246;2023-04-06T22:31:46;101422.19;;;7.29;61.89
60715;BME280;46564;53.096;8.246;2023-04-06T22:36:48;101425.56;;;7.26;62.20
60715;BME280;46564;53.096;8.246;2023-04-06T22:41:50;101421.25;;;7.27;62.40
60715;BME280;46564;53.096;8.246;2023-04-06T22:46:51;101428.03;;;7.23;62.81
60715;BME280;46564;53.096;8.246;2023-04-06T22:51:53;101433.19;;;7.22;63.37
60715;BME280;46564;53.096;8.246;2023-04-06T22:56:54;101442.78;;;7.23;63.62
60715;BME280;46564;53.096;8.246;2023-04-06T23:01:56;101436.72;;;7.22;64.21
60715;BME280;46564;53.096;8.246;2023-04-06T23:06:58;101438.47;;;7.23;64.65
60715;BME280;46564;53.096;8.246;2023-04-06T23:12:00;101438.16;;;7.16;65.41
60715;BME280;46564;53.096;8.246;2023-04-06T23:17:03;101440.56;;;7.11;65.78
60715;BME280;46564;53.096;8.246;2023-04-06T23:22:04;101438.72;;;7.08;66.44
60715;BME280;46564;53.096;8.246;2023-04-06T23:27:06;101428.16;;;7.05;66.95
60715;BME280;46564;53.096;8.246;2023-04-06T23:32:08;101429.66;;;6.99;67.29
60715;BME280;46564;53.096;8.246;2023-04-06T23:37:09;101429.31;;;6.91;67.49
60715;BME280;46564;53.096;8.246;2023-04-06T23:42:11;101425.75;;;6.89;68.18
60715;BME280;46564;53.096;8.246;2023-04-06T23:47:12;101418.53;;;6.82;68.65
60715;BME280;46564;53.096;8.246;2023-04-06T23:52:14;101427.16;;;6.81;68.86
60715;BME280;46564;53.096;8.246;2023-04-06T23:57:16;101431.34;;;6.77;69.73
